sensor_id;sensor_type;location;lat;lon;timestamp;pressure;altitude;pressure_sealevel;temperature;humidity
3780;BME280;1905;52.482;9.802;2024-02-21T00:01:52;101581.38;;;9.18;100.00
3780;BME280;1905;52.482;9.802;2024-02-21T00:04:21;101587.53;;;9.17;100.00
3780;BME280;1905;52.482;9.802;2024-02-21T00:06:50;101594.56;;;9.18;100.00
3780;BME280;1905;52.482;9.802;2024-02-21T00:09:18;101585.84;;;9.16;100.00
3780;BME280;1905;52.482;9.802;2024-02-21T00:11:46;101591.94;;;9.18;100.00
3780;BME280;1905;52.482;9.802;2024-02-21T00:14:15;101586.66;;;9.16;100.00
3780;BME280;1905;52.482;9.802;2024-02-21T00:16:43;101581.38;;;9.18;100.00
3780;BME280;1905;52.482;9.802;2024-02-21T00:19:12;101576.13;;;9.16;100.00
3780;BME280;1905;52.482;9.802;2024-02-21T00:21:43;101578.81;;;9.15;100.00
3780;BME280;1905;52.482;9.802;2024-02-21T00:24:11;101561.16;;;9.18;100.00
3780;BME280;1905;52.482;9.802;2024-02-21T00:26:39;101557.66;;;9.18;100.00
3780;BME280;1905;52.482;9.802;2024-02-21T00:29:08;101564.66;;;9.19;100.00
3780;BME280;1905;52.482;9.802;2024-02-21T00:31:36;101554.91;;;9.22;100.00
3780;BME280;1905;52.482;9.802;2024-02-21T00:34:04;101551.44;;;9.20;100.00
3780;BME280;1905;52.482;9.802;2024-02-21T00:36:32;101554.09;;;9.19;100.00
3780;BME280;1905;52.482;9.802;2024-02-21T00:39:02;101540.03;;;9.20;100.00
3780;BME280;1905;52.482;9.802;2024-02-21T00:41:31;101548.84;;;9.19;100.00
3780;BME280;1905;52.482;9.802;2024-02-21T00:43:59;101544.38;;;9.22;100.00
3780;BME280;1905;52.482;9.802;2024-02-21T00:46:28;101534.63;;;9.26;100.00
3780;BME280;1905;52.482;9.802;2024-02-21T00:48:55;101532.94;;;9.22;100.00
3780;BME280;1905;52.482;9.802;2024-02-21T00:51:24;101544.38;;;9.22;100.00
3780;BME280;1905;52.482;9.802;2024-02-21T00:53:52;101533.81;;;9.24;100.00
3780;BME280;1905;52.482;9.802;2024-02-21T00:56:22;101523.28;;;9.22;100.00
3780;BME280;1905;52.482;9.802;2024-02-21T00:58:50;101519.75;;;9.23;100.00
3780;BME280;1905;52.482;9.802;2024-02-21T01:01:22;101515.34;;;9.24;100.00
3780;BME280;1905;52.482;9.802;2024-02-21T01:03:51;101516.25;;;9.23;100.00
3780;BME280;1905;52.482;9.802;2024-02-21T01:06:21;101507.47;;;9.22;100.00
3780;BME280;1905;52.482;9.802;2024-02-21T01:08:50;101514.50;;;9.23;100.00
3780;BME280;1905;52.482;9.802;2024-02-21T01:11:18;101509.16;;;9.25;100.00
3780;BME280;1905;52.482;9.802;2024-02-21T01:13:48;101504.81;;;9.24;100.00
3780;BME280;1905;52.482;9.802;2024-02-21T01:16:17;101494.28;;;9.24;100.00
3780;BME280;1905;52.482;9.802;2024-02-21T01:18:45;101495.97;;;9.25;100.00
3780;BME280;1905;52.482;9.802;2024-02-21T01:21:14;101498.59;;;9.26;100.00
3780;BME280;1905;52.482;9.802;2024-02-21T01:23:42;101498.59;;;9.26;100.00
3780;BME280;1905;52.482;9.802;2024-02-21T01:26:11;101495.97;;;9.26;100.00
3780;BME280;1905;52.482;9.802;2024-02-21T01:28:41;101490.72;;;9.25;100.00
3780;BME280;1905;52.482;9.802;2024-02-21T01:31:11;101485.44;;;9.25;100.00
3780;BME280;1905;52.482;9.802;2024-02-21T01:33:40;101487.19;;;9.26;100.00
3780;BME280;1905;52.482;9.802;2024-02-21T01:36:09;101482.78;;;9.26;100.00
3780;BME280;1905;52.482;9.802;2024-02-21T01:38:38;101484.56;;;9.24;100.00
3780;BME280;1905;52.482;9.802;2024-02-21T01:41:06;101478.34;;;9.27;100.00
3780;BME280;1905;52.482;9.802;2024-02-21T01:43:34;101473.09;;;9.27;100.00
3780;BME280;1905;52.482;9.802;2024-02-21T01:46:03;101476.66;;;9.26;100.00
3780;BME280;1905;52.482;9.802;2024-02-21T01:48:33;101467.91;;;9.24;100.00
3780;BME280;1905;52.482;9.802;2024-02-21T01:51:05;101464.34;;;9.25;100.00
3780;BME280;1905;52.482;9.802;2024-02-21T01:53:35;101468.59;;;9.32;99.90
3780;BME280;1905;52.482;9.802;2024-02-21T01:56:05;101459.88;;;9.28;99.80
3780;BME280;1905;52.482;9.802;2024-02-21T01:58:35;101462.53;;;9.28;100.00
3780;BME280;1905;52.482;9.802;2024-02-21T02:01:05;101461.69;;;9.26;100.00
3780;BME280;1905;52.482;9.802;2024-02-21T02:03:34;101464.34;;;9.26;100.00
3780;BME280;1905;52.482;9.802;2024-02-21T02:06:04;101463.34;;;9.30;99.63
3780;BME280;1905;52.482;9.802;2024-02-21T02:08:33;101444.06;;;9.28;99.71
3780;BME280;1905;52.482;9.802;2024-02-21T02:11:02;101448.47;;;9.28;100.00
3780;BME280;1905;52.482;9.802;2024-02-21T02:13:31;101445.00;;;9.26;99.76
3780;BME280;1905;52.482;9.802;2024-02-21T02:15:59;101441.44;;;9.28;100.00
3780;BME280;1905;52.482;9.802;2024-02-21T02:18:27;101437.03;;;9.29;99.62
3780;BME280;1905;52.482;9.802;2024-02-21T02:20:57;101436.09;;;9.30;100.00
3780;BME280;1905;52.482;9.802;2024-02-21T02:23:28;101429.13;;;9.29;99.86
3780;BME280;1905;52.482;9.802;2024-02-21T02:25:57;101422.13;;;9.28;99.52
3780;BME280;1905;52.482;9.802;2024-02-21T02:28:27;101416.84;;;9.28;100.00
3780;BME280;1905;52.482;9.802;2024-02-21T02:30:55;101421.22;;;9.29;99.35
3780;BME280;1905;52.482;9.802;2024-02-21T02:33:24;101416.81;;;9.29;99.75
3780;BME280;1905;52.482;9.802;2024-02-21T02:35:53;101411.50;;;9.31;99.16
3780;BME280;1905;52.482;9.802;2024-02-21T02:38:22;101405.34;;;9.30;99.50
3780;BME280;1905;52.482;9.802;2024-02-21T02:40:52;101390.41;;;9.31;100.00
3780;BME280;1905;52.482;9.802;2024-02-21T02:43:20;101394.72;;;9.33;99.75
3780;BME280;1905;52.482;9.802;2024-02-21T02:45:49;101387.72;;;9.32;99.39
3780;BME280;1905;52.482;9.802;2024-02-21T02:48:17;101385.13;;;9.31;100.00
3780;BME280;1905;52.482;9.802;2024-02-21T02:50:47;101378.03;;;9.33;99.02
3780;BME280;1905;52.482;9.802;2024-02-21T02:53:16;101379.81;;;9.32;99.10
3780;BME280;1905;52.482;9.802;2024-02-21T02:55:44;101370.06;;;9.36;99.01
3780;BME280;1905;52.482;9.802;2024-02-21T02:58:14;101358.69;;;9.34;99.46
3780;BME280;1905;52.482;9.802;2024-02-21T03:00:41;101356.06;;;9.34;99.21
3780;BME280;1905;52.482;9.802;2024-02-21T03:03:10;101346.41;;;9.33;99.30
3780;BME280;1905;52.482;9.802;2024-02-21T03:05:39;101344.66;;;9.33;99.02
3780;BME280;1905;52.482;9.802;2024-02-21T03:08:07;101335.06;;;9.31;99.52
3780;BME280;1905;52.482;9.802;2024-02-21T03:10:35;101338.56;;;9.31;99.70
3780;BME280;1905;52.482;9.802;2024-02-21T03:13:04;101321.81;;;9.32;98.62
3780;BME280;1905;52.482;9.802;2024-02-21T03:15:33;101325.25;;;9.36;98.62
3780;BME280;1905;52.482;9.802;2024-02-21T03:18:01;101323.50;;;9.35;99.26
3780;BME280;1905;52.482;9.802;2024-02-21T03:20:30;101293.69;;;9.33;98.98
3780;BME280;1905;52.482;9.802;2024-02-21T03:22:58;101293.69;;;9.33;98.92
3780;BME280;1905;52.482;9.802;2024-02-21T03:25:27;101291.06;;;9.33;99.46
3780;BME280;1905;52.482;9.802;2024-02-21T03:27:55;101298.06;;;9.34;99.08
3780;BME280;1905;52.482;9.802;2024-02-21T03:30:23;101287.47;;;9.35;98.47
3780;BME280;1905;52.482;9.802;2024-02-21T03:32:53;101288.44;;;9.33;98.64
3780;BME280;1905;52.482;9.802;2024-02-21T03:35:22;101289.25;;;9.35;98.34
3780;BME280;1905;52.482;9.802;2024-02-21T03:37:53;101286.59;;;9.35;99.10
3780;BME280;1905;52.482;9.802;2024-02-21T03:40:21;101279.53;;;9.37;98.83
3780;BME280;1905;52.482;9.802;2024-02-21T03:42:50;101280.50;;;9.34;98.14
3780;BME280;1905;52.482;9.802;2024-02-21T03:45:18;101288.34;;;9.36;98.22
3780;BME280;1905;52.482;9.802;2024-02-21T03:47:47;101283.06;;;9.36;98.10
3780;BME280;1905;52.482;9.802;2024-02-21T03:50:16;101279.63;;;9.34;98.17
3780;BME280;1905;52.482;9.802;2024-02-21T03:52:45;101275.22;;;9.34;98.41
3780;BME280;1905;52.482;9.802;2024-02-21T03:55:13;101285.78;;;9.34;98.13
3780;BME280;1905;52.482;9.802;2024-02-21T03:57:41;101298.88;;;9.36;97.73
3780;BME280;1905;52.482;9.802;2024-02-21T04:00:10;101294.47;;;9.36;98.38
3780;BME280;1905;52.482;9.802;2024-02-21T04:02:38;101313.03;;;9.33;98.19
3780;BME280;1905;52.482;9.802;2024-02-21T04:05:07;101321.78;;;9.34;98.72
3780;BME280;1905;52.482;9.802;2024-02-21T04:07:40;101332.25;;;9.37;98.23
3780;BME280;1905;52.482;9.802;2024-02-21T04:10:08;101330.53;;;9.36;98.33
3780;BME280;1905;52.482;9.802;2024-02-21T04:12:37;101334.91;;;9.37;98.00
3780;BME280;1905;52.482;9.802;2024-02-21T04:15:06;101327.06;;;9.34;98.66
3780;BME280;1905;52.482;9.802;2024-02-21T04:17:34;101323.50;;;9.35;98.86
3780;BME280;1905;52.482;9.802;2024-02-21T04:20:04;101322.63;;;9.36;98.57
3780;BME280;1905;52.482;9.802;2024-02-21T04:22:34;101323.41;;;9.38;98.96
3780;BME280;1905;52.482;9.802;2024-02-21T04:25:05;101318.22;;;9.35;98.78
3780;BME280;1905;52.482;9.802;2024-02-21T04:27:33;101315.59;;;9.35;98.24
3780;BME280;1905;52.482;9.802;2024-02-21T04:30:02;101323.41;;;9.38;97.85
3780;BME280;1905;52.482;9.802;2024-02-21T04:32:30;101323.41;;;9.38;97.96
3780;BME280;1905;52.482;9.802;2024-02-21T04:34:58;101321.63;;;9.40;97.78
3780;BME280;1905;52.482;9.802;2024-02-21T04:37:27;101309.34;;;9.39;98.27
3780;BME280;1905;52.482;9.802;2024-02-21T04:39:55;101312.88;;;9.38;97.46
3780;BME280;1905;52.482;9.802;2024-02-21T04:42:24;101313.81;;;9.37;98.61
3780;BME280;1905;52.482;9.802;2024-02-21T04:44:53;101311.13;;;9.38;98.69
3780;BME280;1905;52.482;9.802;2024-02-21T04:47:21;101316.44;;;9.37;98.53
3780;BME280;1905;52.482;9.802;2024-02-21T04:49:50;101313.81;;;9.37;98.25
3780;BME280;1905;52.482;9.802;2024-02-21T04:52:19;101319.81;;;9.42;98.81
3780;BME280;1905;52.482;9.802;2024-02-21T04:54:47;101321.72;;;9.37;97.97
3780;BME280;1905;52.482;9.802;2024-02-21T04:57:15;101321.72;;;9.37;98.13
3780;BME280;1905;52.482;9.802;2024-02-21T04:59:46;101323.41;;;9.38;98.38
3780;BME280;1905;52.482;9.802;2024-02-21T05:02:14;101317.25;;;9.39;98.91
3780;BME280;1905;52.482;9.802;2024-02-21T05:04:42;101315.50;;;9.39;98.03
3780;BME280;1905;52.482;9.802;2024-02-21T05:07:11;101308.56;;;9.35;97.87
3780;BME280;1905;52.482;9.802;2024-02-21T05:09:40;101307.69;;;9.35;98.02
3780;BME280;1905;52.482;9.802;2024-02-21T05:12:09;101298.00;;;9.35;98.42
3780;BME280;1905;52.482;9.802;2024-02-21T05:14:37;101307.59;;;9.38;98.13
3780;BME280;1905;52.482;9.802;2024-02-21T05:17:06;101305.06;;;9.35;98.92
3780;BME280;1905;52.482;9.802;2024-02-21T05:19:35;101298.97;;;9.33;98.55
3780;BME280;1905;52.482;9.802;2024-02-21T05:22:04;101305.97;;;9.34;98.70
3780;BME280;1905;52.482;9.802;2024-02-21T05:24:32;101300.53;;;9.40;98.37
3780;BME280;1905;52.482;9.802;2024-02-21T05:27:00;101301.59;;;9.33;98.77
3780;BME280;1905;52.482;9.802;2024-02-21T05:29:28;101291.78;;;9.38;99.56
3780;BME280;1905;52.482;9.802;2024-02-21T05:31:57;101305.91;;;9.37;98.45
3780;BME280;1905;52.482;9.802;2024-02-21T05:34:27;101298.97;;;9.33;98.68
3780;BME280;1905;52.482;9.802;2024-02-21T05:36:55;101302.53;;;9.32;99.93
3780;BME280;1905;52.482;9.802;2024-02-21T05:39:24;101300.78;;;9.31;99.74
3780;BME280;1905;52.482;9.802;2024-02-21T05:41:52;101298.97;;;9.33;99.82
3780;BME280;1905;52.482;9.802;2024-02-21T05:44:21;101292.84;;;9.32;99.78
3780;BME280;1905;52.482;9.802;2024-02-21T05:46:49;101295.34;;;9.37;100.00
3780;BME280;1905;52.482;9.802;2024-02-21T05:49:18;101299.84;;;9.33;99.63
3780;BME280;1905;52.482;9.802;2024-02-21T05:51:47;101302.41;;;9.35;99.62
3780;BME280;1905;52.482;9.802;2024-02-21T05:54:15;101297.25;;;9.32;100.00
3780;BME280;1905;52.482;9.802;2024-02-21T05:56:44;101291.06;;;9.33;99.79
3780;BME280;1905;52.482;9.802;2024-02-21T05:59:14;101292.03;;;9.30;100.00
3780;BME280;1905;52.482;9.802;2024-02-21T06:01:42;101287.69;;;9.29;100.00
3780;BME280;1905;52.482;9.802;2024-02-21T06:04:10;101293.63;;;9.36;100.00
3780;BME280;1905;52.482;9.802;2024-02-21T06:06:38;101293.78;;;9.30;100.00
3780;BME280;1905;52.482;9.802;2024-02-21T06:09:08;101291.13;;;9.31;100.00
3780;BME280;1905;52.482;9.802;2024-02-21T06:11:36;101297.34;;;9.29;100.00
3780;BME280;1905;52.482;9.802;2024-02-21T06:14:05;101284.09;;;9.32;100.00
3780;BME280;1905;52.482;9.802;2024-02-21T06:16:34;101290.25;;;9.31;100.00
3780;BME280;1905;52.482;9.802;2024-02-21T06:19:02;101282.34;;;9.31;100.00
3780;BME280;1905;52.482;9.802;2024-02-21T06:21:36;101280.56;;;9.31;100.00
3780;BME280;1905;52.482;9.802;2024-02-21T06:24:04;101277.97;;;9.30;100.00
3780;BME280;1905;52.482;9.802;2024-02-21T06:26:34;101265.63;;;9.32;100.00
3780;BME280;1905;52.482;9.802;2024-02-21T06:29:02;101277.00;;;9.32;100.00
3780;BME280;1905;52.482;9.802;2024-02-21T06:31:30;101265.63;;;9.32;100.00
3780;BME280;1905;52.482;9.802;2024-02-21T06:33:59;101267.44;;;9.30;100.00
3780;BME280;1905;52.482;9.802;2024-02-21T06:36:27;101277.13;;;9.29;100.00
3780;BME280;1905;52.482;9.802;2024-02-21T06:38:55;101265.75;;;9.27;100.00
3780;BME280;1905;52.482;9.802;2024-02-21T06:41:24;101271.00;;;9.29;100.00
3780;BME280;1905;52.482;9.802;2024-02-21T06:43:53;101278.06;;;9.27;100.00
3780;BME280;1905;52.482;9.802;2024-02-21T06:46:25;101281.53;;;9.29;100.00
3780;BME280;1905;52.482;9.802;2024-02-21T06:48:53;101272.78;;;9.27;100.00
3780;BME280;1905;52.482;9.802;2024-02-21T06:51:23;101264.88;;;9.27;100.00
3780;BME280;1905;52.482;9.802;2024-02-21T06:53:52;101263.97;;;9.28;100.00
3780;BME280;1905;52.482;9.802;2024-02-21T06:56:22;101251.63;;;9.30;100.00
3780;BME280;1905;52.482;9.802;2024-02-21T06:58:56;101253.50;;;9.26;100.00
3780;BME280;1905;52.482;9.802;2024-02-21T07:01:24;101257.81;;;9.29;100.00
3780;BME280;1905;52.482;9.802;2024-02-21T07:03:53;101257.75;;;9.30;100.00
3780;BME280;1905;52.482;9.802;2024-02-21T07:06:22;101258.72;;;9.28;100.00
3780;BME280;1905;52.482;9.802;2024-02-21T07:08:50;101260.53;;;9.26;100.00
3780;BME280;1905;52.482;9.802;2024-02-21T07:11:19;101260.53;;;9.26;100.00
3780;BME280;1905;52.482;9.802;2024-02-21T07:13:47;101265.81;;;9.26;100.00
3780;BME280;1905;52.482;9.802;2024-02-21T07:16:17;101263.97;;;9.28;100.00
3780;BME280;1905;52.482;9.802;2024-02-21T07:18:45;101271.88;;;9.28;100.00
3780;BME280;1905;52.482;9.802;2024-02-21T07:21:14;101267.50;;;9.27;100.00
3780;BME280;1905;52.482;9.802;2024-02-21T07:23:42;101275.31;;;9.31;100.00
3780;BME280;1905;52.482;9.802;2024-02-21T07:26:12;101270.06;;;9.30;100.00
3780;BME280;1905;52.482;9.802;2024-02-21T07:28:40;101265.72;;;9.29;100.00
3780;BME280;1905;52.482;9.802;2024-02-21T07:31:08;101265.72;;;9.29;100.00
3780;BME280;1905;52.482;9.802;2024-02-21T07:33:38;101269.16;;;9.31;100.00
3780;BME280;1905;52.482;9.802;2024-02-21T07:36:07;101266.63;;;9.28;100.00
3780;BME280;1905;52.482;9.802;2024-02-21T07:38:35;101260.38;;;9.30;100.00
3780;BME280;1905;52.482;9.802;2024-02-21T07:41:04;101263.91;;;9.31;100.00
3780;BME280;1905;52.482;9.802;2024-02-21T07:43:32;101266.53;;;9.31;100.00
3780;BME280;1905;52.482;9.802;2024-02-21T07:46:00;101263.81;;;9.34;100.00
3780;BME280;1905;52.482;9.802;2024-02-21T07:48:29;101272.44;;;9.39;100.00
3780;BME280;1905;52.482;9.802;2024-02-21T07:51:02;101278.75;;;9.33;100.00
3780;BME280;1905;52.482;9.802;2024-02-21T07:53:31;101276.06;;;9.35;100.00
3780;BME280;1905;52.482;9.802;2024-02-21T07:55:59;101285.78;;;9.34;100.00
3780;BME280;1905;52.482;9.802;2024-02-21T07:58:28;101277.81;;;9.36;100.00
3780;BME280;1905;52.482;9.802;2024-02-21T08:00:56;101272.53;;;9.36;100.00
3780;BME280;1905;52.482;9.802;2024-02-21T08:03:24;101267.25;;;9.36;100.00
3780;BME280;1905;52.482;9.802;2024-02-21T08:05:52;101276.84;;;9.38;100.00
3780;BME280;1905;52.482;9.802;2024-02-21T08:08:22;101271.63;;;9.37;100.00
3780;BME280;1905;52.482;9.802;2024-02-21T08:10:51;101271.53;;;9.40;100.00
3780;BME280;1905;52.482;9.802;2024-02-21T08:13:20;101267.09;;;9.42;100.00
3780;BME280;1905;52.482;9.802;2024-02-21T08:15:49;101262.72;;;9.41;100.00
3780;BME280;1905;52.482;9.802;2024-02-21T08:18:17;101265.31;;;9.42;100.00
3780;BME280;1905;52.482;9.802;2024-02-21T08:20:45;101268.91;;;9.40;100.00
3780;BME280;1905;52.482;9.802;2024-02-21T08:23:16;101267.00;;;9.45;100.00
3780;BME280;1905;52.482;9.802;2024-02-21T08:25:46;101267.09;;;9.42;99.92
3780;BME280;1905;52.482;9.802;2024-02-21T08:28:14;101263.44;;;9.46;100.00
3780;BME280;1905;52.482;9.802;2024-02-21T08:30:42;101251.19;;;9.45;100.00
3780;BME280;1905;52.482;9.802;2024-02-21T08:33:15;101246.78;;;9.45;99.43
3780;BME280;1905;52.482;9.802;2024-02-21T08:35:44;101248.47;;;9.46;99.94
3780;BME280;1905;52.482;9.802;2024-02-21T08:38:12;101242.34;;;9.46;99.31
3780;BME280;1905;52.482;9.802;2024-02-21T08:40:41;101237.03;;;9.47;99.16
3780;BME280;1905;52.482;9.802;2024-02-21T08:43:10;101240.47;;;9.51;99.65
3780;BME280;1905;52.482;9.802;2024-02-21T08:45:38;101245.59;;;9.54;99.94
3780;BME280;1905;52.482;9.802;2024-02-21T08:48:07;101242.94;;;9.55;98.78
3780;BME280;1905;52.482;9.802;2024-02-21T08:50:35;101236.78;;;9.56;99.23
3780;BME280;1905;52.482;9.802;2024-02-21T08:53:05;101235.84;;;9.57;99.37
3780;BME280;1905;52.482;9.802;2024-02-21T08:55:34;101222.41;;;9.65;98.95
3780;BME280;1905;52.482;9.802;2024-02-21T08:58:03;101219.06;;;9.60;98.69
3780;BME280;1905;52.482;9.802;2024-02-21T09:00:33;101219.78;;;9.65;98.31
3780;BME280;1905;52.482;9.802;2024-02-21T09:03:01;101213.53;;;9.68;98.84
3780;BME280;1905;52.482;9.802;2024-02-21T09:05:32;101216.16;;;9.69;99.42
3780;BME280;1905;52.482;9.802;2024-02-21T09:08:02;101221.34;;;9.71;98.53
3780;BME280;1905;52.482;9.802;2024-02-21T09:10:31;101210.78;;;9.72;99.37
3780;BME280;1905;52.482;9.802;2024-02-21T09:12:59;101209.75;;;9.76;99.00
3780;BME280;1905;52.482;9.802;2024-02-21T09:15:33;101216.69;;;9.80;98.81
3780;BME280;1905;52.482;9.802;2024-02-21T09:18:01;101219.22;;;9.83;98.84
3780;BME280;1905;52.482;9.802;2024-02-21T09:20:30;101209.47;;;9.85;98.42
3780;BME280;1905;52.482;9.802;2024-02-21T09:22:58;101211.09;;;9.89;98.12
3780;BME280;1905;52.482;9.802;2024-02-21T09:25:26;101204.09;;;9.88;98.12
3780;BME280;1905;52.482;9.802;2024-02-21T09:27:55;101201.28;;;9.94;98.13
3780;BME280;1905;52.482;9.802;2024-02-21T09:30:25;101203.91;;;9.94;98.40
3780;BME280;1905;52.482;9.802;2024-02-21T09:32:54;101203.69;;;10.00;98.14
3780;BME280;1905;52.482;9.802;2024-02-21T09:35:25;101198.38;;;10.02;98.22
3780;BME280;1905;52.482;9.802;2024-02-21T09:37:54;101191.16;;;10.07;98.14
3780;BME280;1905;52.482;9.802;2024-02-21T09:40:22;101180.44;;;10.11;96.22
3780;BME280;1905;52.482;9.802;2024-02-21T09:42:55;101176.94;;;10.12;96.32
3780;BME280;1905;52.482;9.802;2024-02-21T09:45:26;101178.44;;;10.20;97.01
3780;BME280;1905;52.482;9.802;2024-02-21T09:48:06;101179.19;;;10.23;96.28
3780;BME280;1905;52.482;9.802;2024-02-21T09:50:40;101184.31;;;10.28;96.68
3780;BME280;1905;52.482;9.802;2024-02-21T09:53:09;101181.56;;;10.31;94.96
3780;BME280;1905;52.482;9.802;2024-02-21T09:55:40;101182.34;;;10.34;96.17
3780;BME280;1905;52.482;9.802;2024-02-21T09:58:08;101184.81;;;10.39;96.01
3780;BME280;1905;52.482;9.802;2024-02-21T10:00:37;101183.00;;;10.41;95.56
3780;BME280;1905;52.482;9.802;2024-02-21T10:03:06;101178.25;;;10.50;96.13
3780;BME280;1905;52.482;9.802;2024-02-21T10:05:36;101175.69;;;10.49;95.25
3780;BME280;1905;52.482;9.802;2024-02-21T10:08:05;101180.72;;;10.55;94.72
3780;BME280;1905;52.482;9.802;2024-02-21T10:10:41;101172.66;;;10.59;94.25
3780;BME280;1905;52.482;9.802;2024-02-21T10:13:10;101173.66;;;10.55;92.63
3780;BME280;1905;52.482;9.802;2024-02-21T10:15:38;101178.75;;;10.60;92.94
3780;BME280;1905;52.482;9.802;2024-02-21T10:18:08;101168.09;;;10.63;92.79
3780;BME280;1905;52.482;9.802;2024-02-21T10:20:36;101172.28;;;10.68;92.83
3780;BME280;1905;52.482;9.802;2024-02-21T10:23:05;101166.97;;;10.70;92.30
3780;BME280;1905;52.482;9.802;2024-02-21T10:25:36;101161.81;;;10.67;91.05
3780;BME280;1905;52.482;9.802;2024-02-21T10:28:11;101158.00;;;10.74;92.46
3780;BME280;1905;52.482;9.802;2024-02-21T10:30:49;101153.41;;;10.79;93.03
3780;BME280;1905;52.482;9.802;2024-02-21T10:33:19;101159.53;;;10.81;92.01
3780;BME280;1905;52.482;9.802;2024-02-21T10:35:49;101155.16;;;10.80;90.95
3780;BME280;1905;52.482;9.802;2024-02-21T10:38:16;101148.78;;;10.86;92.08
3780;BME280;1905;52.482;9.802;2024-02-21T10:40:46;101144.34;;;10.86;90.30
3780;BME280;1905;52.482;9.802;2024-02-21T10:43:16;101141.53;;;10.91;91.27
3780;BME280;1905;52.482;9.802;2024-02-21T10:45:47;101126.44;;;10.94;90.74
3780;BME280;1905;52.482;9.802;2024-02-21T10:48:22;101121.81;;;10.99;92.06
3780;BME280;1905;52.482;9.802;2024-02-21T10:50:57;101118.28;;;11.00;89.37
3780;BME280;1905;52.482;9.802;2024-02-21T10:53:35;101115.56;;;11.02;91.51
3780;BME280;1905;52.482;9.802;2024-02-21T10:56:20;101114.56;;;11.04;91.38
3780;BME280;1905;52.482;9.802;2024-02-21T10:58:50;101113.78;;;11.02;88.33
3780;BME280;1905;52.482;9.802;2024-02-21T11:01:19;101111.69;;;11.10;91.38
3780;BME280;1905;52.482;9.802;2024-02-21T11:03:51;101103.81;;;11.09;88.95
3780;BME280;1905;52.482;9.802;2024-02-21T11:06:21;101107.97;;;11.16;89.27
3780;BME280;1905;52.482;9.802;2024-02-21T11:09:00;101083.25;;;11.17;90.17
3780;BME280;1905;52.482;9.802;2024-02-21T11:11:33;101088.47;;;11.18;90.62
3780;BME280;1905;52.482;9.802;2024-02-21T11:14:05;101081.22;;;11.23;91.17
3780;BME280;1905;52.482;9.802;2024-02-21T11:16:38;101089.22;;;11.22;89.66
3780;BME280;1905;52.482;9.802;2024-02-21T11:19:10;101082.19;;;11.21;87.54
3780;BME280;1905;52.482;9.802;2024-02-21T11:21:47;101071.56;;;11.22;86.24
3780;BME280;1905;52.482;9.802;2024-02-21T11:24:25;101065.22;;;11.26;88.60
3780;BME280;1905;52.482;9.802;2024-02-21T11:26:55;101072.38;;;11.24;85.34
3780;BME280;1905;52.482;9.802;2024-02-21T11:29:23;101074.78;;;11.30;88.80
3780;BME280;1905;52.482;9.802;2024-02-21T11:31:53;101064.19;;;11.30;86.86
3780;BME280;1905;52.482;9.802;2024-02-21T11:34:22;101056.13;;;11.33;88.64
3780;BME280;1905;52.482;9.802;2024-02-21T11:36:52;101053.47;;;11.33;87.48
3780;BME280;1905;52.482;9.802;2024-02-21T11:39:21;101044.50;;;11.38;87.66
3780;BME280;1905;52.482;9.802;2024-02-21T11:42:03;101041.75;;;11.41;89.00
3780;BME280;1905;52.482;9.802;2024-02-21T11:44:32;101039.75;;;11.46;89.04
3780;BME280;1905;52.482;9.802;2024-02-21T11:47:01;101040.78;;;11.42;86.36
3780;BME280;1905;52.482;9.802;2024-02-21T11:49:36;101030.38;;;11.39;84.81
3780;BME280;1905;52.482;9.802;2024-02-21T11:52:05;101018.97;;;11.36;85.55
3780;BME280;1905;52.482;9.802;2024-02-21T11:54:34;101004.88;;;11.36;84.79
3780;BME280;1905;52.482;9.802;2024-02-21T11:57:03;101015.41;;;11.38;85.42
3780;BME280;1905;52.482;9.802;2024-02-21T11:59:32;101018.84;;;11.40;85.17
3780;BME280;1905;52.482;9.802;2024-02-21T12:02:01;101009.22;;;11.39;84.78
3780;BME280;1905;52.482;9.802;2024-02-21T12:04:32;101002.97;;;11.40;83.25
3780;BME280;1905;52.482;9.802;2024-02-21T12:07:00;100992.91;;;11.49;85.79
3780;BME280;1905;52.482;9.802;2024-02-21T12:09:30;100994.69;;;11.49;85.29
3780;BME280;1905;52.482;9.802;2024-02-21T12:11:58;100978.03;;;11.47;85.37
3780;BME280;1905;52.482;9.802;2024-02-21T12:14:28;100979.72;;;11.48;85.79
3780;BME280;1905;52.482;9.802;2024-02-21T12:16:57;100978.69;;;11.52;86.94
3780;BME280;1905;52.482;9.802;2024-02-21T12:19:28;100967.03;;;11.56;86.76
3780;BME280;1905;52.482;9.802;2024-02-21T12:21:58;100972.31;;;11.56;85.52
3780;BME280;1905;52.482;9.802;2024-02-21T12:24:28;100953.88;;;11.54;86.78
3780;BME280;1905;52.482;9.802;2024-02-21T12:26:57;100958.31;;;11.54;83.88
3780;BME280;1905;52.482;9.802;2024-02-21T12:29:27;100968.75;;;11.57;87.21
3780;BME280;1905;52.482;9.802;2024-02-21T12:31:57;100967.75;;;11.59;86.10
3780;BME280;1905;52.482;9.802;2024-02-21T12:34:25;100953.41;;;11.65;83.93
3780;BME280;1905;52.482;9.802;2024-02-21T12:37:12;100950.13;;;11.60;81.17
3780;BME280;1905;52.482;9.802;2024-02-21T12:39:43;100946.53;;;11.61;83.39
3780;BME280;1905;52.482;9.802;2024-02-21T12:42:11;100941.78;;;11.69;86.13
3780;BME280;1905;52.482;9.802;2024-02-21T12:44:39;100939.94;;;11.71;85.08
3780;BME280;1905;52.482;9.802;2024-02-21T12:47:07;100949.41;;;11.76;86.23
3780;BME280;1905;52.482;9.802;2024-02-21T12:49:35;100934.38;;;11.77;81.16
3780;BME280;1905;52.482;9.802;2024-02-21T12:52:05;100942.50;;;11.72;82.57
3780;BME280;1905;52.482;9.802;2024-02-21T12:54:35;100940.59;;;11.76;83.03
3780;BME280;1905;52.482;9.802;2024-02-21T12:57:03;100931.03;;;11.73;83.20
3780;BME280;1905;52.482;9.802;2024-02-21T12:59:31;100930.66;;;11.81;84.06
3780;BME280;1905;52.482;9.802;2024-02-21T13:01:59;100927.25;;;11.79;84.01
3780;BME280;1905;52.482;9.802;2024-02-21T13:04:28;100925.25;;;11.84;83.10
3780;BME280;1905;52.482;9.802;2024-02-21T13:06:57;100924.28;;;11.85;82.64
3780;BME280;1905;52.482;9.802;2024-02-21T13:09:25;100913.72;;;11.85;81.47
3780;BME280;1905;52.482;9.802;2024-02-21T13:11:55;100910.78;;;11.91;83.43
3780;BME280;1905;52.482;9.802;2024-02-21T13:14:23;100894.06;;;11.90;84.66
3780;BME280;1905;52.482;9.802;2024-02-21T13:16:51;100881.69;;;11.91;82.69
3780;BME280;1905;52.482;9.802;2024-02-21T13:19:22;100879.81;;;11.93;82.92
3780;BME280;1905;52.482;9.802;2024-02-21T13:21:50;100865.66;;;11.94;82.32
3780;BME280;1905;52.482;9.802;2024-02-21T13:24:18;100868.25;;;11.96;81.20
3780;BME280;1905;52.482;9.802;2024-02-21T13:26:46;100861.00;;;11.99;84.87